createdAt,value
2022-09-07T00:00:53.689Z,41.89
2022-09-07T00:03:22.096Z,42.16
2022-09-07T00:05:51.201Z,42.44
2022-09-07T00:08:22.100Z,41.89
2022-09-07T00:10:56.929Z,42.12
2022-09-07T00:13:26.843Z,42.48
2022-09-07T00:15:54.450Z,42.57
2022-09-07T00:18:21.649Z,42.64
2022-09-07T00:21:03.781Z,42.65
2022-09-07T00:23:32.761Z,42.79
2022-09-07T00:26:12.896Z,42.65
2022-09-07T00:28:40.905Z,42.95
2022-09-07T00:31:15.348Z,43.03
2022-09-07T00:33:43.964Z,43.25
2022-09-07T00:36:11.216Z,43.09
2022-09-07T00:38:38.685Z,43.00
2022-09-07T00:41:06.853Z,43.06
2022-09-07T00:43:38.514Z,43.36
2022-09-07T00:46:11.963Z,43.34
2022-09-07T00:49:13.060Z,43.22
2022-09-07T00:51:48.286Z,43.46
2022-09-07T00:54:21.582Z,43.52
2022-09-07T00:56:52.451Z,43.56
2022-09-07T00:59:28.656Z,43.75
2022-09-07T01:01:56.353Z,43.56
2022-09-07T01:04:25.549Z,43.56
2022-09-07T01:06:55.381Z,43.61
2022-09-07T01:09:26.808Z,43.40
2022-09-07T01:11:57.333Z,43.42
2022-09-07T01:14:32.918Z,43.70
2022-09-07T01:17:25.762Z,43.54
2022-09-07T01:20:01.621Z,43.27
2022-09-07T01:23:21.482Z,43.39
2022-09-07T01:26:21.137Z,43.30
2022-09-07T01:28:58.072Z,43.09
2022-09-07T01:32:01.673Z,43.20
2022-09-07T01:34:29.052Z,43.43
2022-09-07T01:37:11.235Z,43.57
2022-09-07T01:40:02.096Z,43.48
2022-09-07T01:42:37.879Z,43.54
2022-09-07T01:45:12.318Z,44.01
2022-09-07T01:47:54.941Z,43.42
2022-09-07T01:50:56.498Z,43.64
2022-09-07T01:53:39.187Z,43.79
2022-09-07T01:56:47.806Z,44.09
2022-09-07T01:59:51.109Z,44.24
2022-09-07T02:02:26.400Z,44.07
2022-09-07T02:05:06.605Z,44.13
2022-09-07T02:07:41.426Z,43.95
2022-09-07T02:10:26.454Z,43.88
2022-09-07T02:13:14.329Z,44.10
2022-09-07T02:15:59.908Z,44.17
2022-09-07T02:18:34.945Z,44.06
2022-09-07T02:21:04.554Z,44.24
2022-09-07T02:23:47.267Z,44.19
2022-09-07T02:26:19.027Z,44.49
2022-09-07T02:28:47.142Z,44.78
2022-09-07T02:31:14.695Z,44.99
2022-09-07T02:33:42.554Z,45.13
2022-09-07T02:36:12.950Z,44.98
2022-09-07T02:38:40.184Z,44.73
2022-09-07T02:41:38.784Z,44.95
2022-09-07T02:44:20.073Z,44.95
2022-09-07T02:47:33.098Z,44.80
2022-09-07T02:50:39.959Z,44.88
2022-09-07T02:53:43.709Z,44.90
2022-09-07T02:56:52.515Z,44.95
2022-09-07T02:59:46.904Z,44.80
2022-09-07T03:02:24.101Z,44.79
2022-09-07T03:04:55.422Z,44.94
2022-09-07T03:07:35.626Z,45.02
2022-09-07T03:10:06.105Z,44.71
2022-09-07T03:12:48.816Z,44.87
2022-09-07T03:15:23.947Z,45.12
2022-09-07T03:17:52.293Z,45.09
2022-09-07T03:20:20.625Z,45.02
2022-09-07T03:22:50.057Z,45.10
2022-09-07T03:25:18.710Z,45.07
2022-09-07T03:27:45.965Z,45.14
2022-09-07T03:30:14.129Z,45.15
2022-09-07T03:32:41.490Z,45.23
2022-09-07T03:35:14.472Z,45.45
2022-09-07T03:37:41.816Z,45.34
2022-09-07T03:40:12.333Z,45.37
2022-09-07T03:42:40.281Z,45.36
2022-09-07T03:45:09.285Z,45.36
2022-09-07T03:47:37.689Z,45.73
2022-09-07T03:50:06.615Z,45.69
2022-09-07T03:52:35.084Z,45.78
2022-09-07T03:55:02.512Z,45.69
2022-09-07T03:57:29.775Z,45.79
2022-09-07T03:59:56.918Z,45.94
2022-09-07T04:02:24.313Z,46.11
2022-09-07T04:04:51.638Z,46.24
2022-09-07T04:07:19.014Z,45.93
2022-09-07T04:09:46.139Z,45.94
2022-09-07T04:12:13.897Z,45.98
2022-09-07T04:14:41.462Z,45.80
2022-09-07T04:17:08.801Z,46.02
2022-09-07T04:19:36.213Z,45.88
2022-09-07T04:22:03.426Z,45.81
2022-09-07T04:24:30.606Z,45.86
2022-09-07T04:26:57.758Z,45.84
2022-09-07T04:29:24.942Z,46.01
2022-09-07T04:31:52.172Z,45.76
2022-09-07T04:34:20.141Z,45.73
2022-09-07T04:36:47.277Z,45.72
2022-09-07T04:39:14.413Z,45.65
2022-09-07T04:41:41.645Z,45.61
2022-09-07T04:44:13.622Z,45.65
2022-09-07T04:46:43.629Z,45.29
2022-09-07T04:49:11.544Z,45.44
2022-09-07T04:51:42.129Z,45.39
2022-09-07T04:54:10.510Z,45.31
2022-09-07T04:56:38.522Z,45.58
2022-09-07T04:59:05.941Z,45.35
2022-09-07T05:01:33.161Z,45.59
2022-09-07T05:04:01.989Z,45.68
2022-09-07T05:06:29.716Z,45.41
2022-09-07T05:08:58.822Z,45.81
2022-09-07T05:11:29.370Z,45.81
2022-09-07T05:13:59.454Z,45.33
2022-09-07T05:16:28.240Z,45.53
2022-09-07T05:19:01.839Z,45.38
2022-09-07T05:21:32.511Z,45.66
2022-09-07T05:24:01.314Z,45.88
2022-09-07T05:26:32.299Z,45.82
2022-09-07T05:31:51.414Z,45.58
2022-09-07T05:34:34.532Z,45.78
2022-09-07T05:37:02.346Z,45.51
2022-09-07T05:39:30.428Z,45.75
2022-09-07T05:41:57.580Z,45.56
2022-09-07T05:47:12.639Z,45.36
2022-09-07T05:49:40.007Z,44.68
2022-09-07T05:52:07.644Z,44.74
2022-09-07T05:54:35.065Z,44.40
2022-09-07T05:57:03.086Z,44.23
2022-09-07T05:59:30.653Z,44.49
2022-09-07T06:01:58.051Z,44.82
2022-09-07T06:04:25.473Z,44.29
2022-09-07T06:07:20.146Z,44.23
2022-09-07T06:12:28.076Z,43.92
2022-09-07T06:14:55.194Z,44.13
2022-09-07T06:17:22.534Z,43.62
2022-09-07T06:19:49.692Z,43.89
2022-09-07T06:22:16.998Z,43.68
2022-09-07T06:24:44.246Z,43.89
2022-09-07T06:27:11.714Z,43.48
2022-09-07T06:29:38.933Z,43.46
2022-09-07T06:34:54.317Z,43.39
2022-09-07T06:37:21.438Z,43.79
2022-09-07T06:39:49.029Z,43.74
2022-09-07T06:42:16.418Z,43.99
2022-09-07T06:44:44.061Z,44.44
2022-09-07T06:47:11.641Z,44.51
2022-09-07T06:49:38.784Z,43.55
2022-09-07T06:52:06.227Z,42.95
2022-09-07T06:57:21.461Z,43.32
2022-09-07T06:59:48.990Z,42.90
2022-09-07T07:02:16.452Z,43.00
2022-09-07T07:04:43.887Z,43.27
2022-09-07T07:07:13.441Z,43.58
2022-09-07T07:09:41.713Z,43.87
2022-09-07T07:12:10.812Z,43.26
2022-09-07T07:14:44.045Z,43.50
2022-09-07T07:17:13.485Z,43.72
2022-09-07T07:19:40.585Z,43.67
2022-09-07T07:22:29.505Z,44.06
2022-09-07T07:24:55.756Z,44.21
2022-09-07T07:27:23.193Z,44.31
2022-09-07T07:29:51.943Z,44.64
2022-09-07T07:32:19.347Z,44.19
2022-09-07T07:34:46.572Z,44.08
2022-09-07T07:37:15.382Z,43.63
2022-09-07T07:42:30.771Z,43.84
2022-09-07T07:47:50.850Z,44.50
2022-09-07T07:50:34.377Z,44.53
2022-09-07T07:55:49.044Z,44.79
2022-09-07T07:58:16.585Z,44.52
2022-09-07T08:00:54.436Z,44.38
2022-09-07T08:03:24.823Z,43.69
2022-09-07T08:05:53.057Z,44.41
2022-09-07T08:08:21.566Z,44.42
2022-09-07T08:10:49.961Z,44.27
2022-09-07T08:13:17.892Z,43.59
2022-09-07T08:15:45.836Z,43.12
2022-09-07T08:18:15.160Z,43.24
2022-09-07T08:20:43.269Z,42.70
2022-09-07T08:23:11.170Z,42.78
2022-09-07T08:25:38.415Z,42.86
2022-09-07T08:28:05.610Z,42.59
2022-09-07T08:30:33.096Z,42.40
2022-09-07T08:33:00.368Z,42.56
2022-09-07T08:35:27.354Z,42.29
2022-09-07T08:37:54.460Z,42.16
2022-09-07T08:40:21.492Z,42.02
2022-09-07T08:43:11.593Z,42.11
2022-09-07T08:46:38.527Z,42.04
2022-09-07T08:49:18.570Z,43.00
2022-09-07T08:52:15.695Z,42.53
2022-09-07T08:54:49.717Z,42.80
2022-09-07T08:57:26.901Z,43.30
2022-09-07T09:00:13.418Z,43.50
2022-09-07T09:02:44.344Z,44.20
2022-09-07T09:05:58.495Z,43.67
2022-09-07T09:08:57.643Z,43.60
2022-09-07T09:12:04.281Z,44.33
2022-09-07T09:14:54.252Z,43.60
2022-09-07T09:17:46.317Z,43.90
2022-09-07T09:20:54.983Z,43.49
2022-09-07T09:23:30.541Z,42.95
2022-09-07T09:26:23.620Z,42.98
2022-09-07T09:28:51.098Z,43.07
2022-09-07T09:31:22.066Z,43.09
2022-09-07T09:34:10.727Z,43.90
2022-09-07T09:36:51.036Z,43.51
2022-09-07T09:39:37.926Z,43.00
2022-09-07T09:42:11.226Z,43.39
2022-09-07T09:44:39.142Z,42.66
2022-09-07T09:49:55.034Z,42.45
2022-09-07T09:52:33.952Z,41.98
2022-09-07T10:06:25.655Z,41.85
2022-09-07T10:08:59.658Z,41.57
2022-09-07T10:12:08.546Z,41.08
2022-09-07T10:14:43.719Z,41.33
2022-09-07T10:17:21.239Z,41.07
2022-09-07T10:19:49.158Z,40.44
2022-09-07T10:22:37.194Z,41.40
2022-09-07T10:25:31.824Z,40.65
2022-09-07T10:28:10.950Z,40.49
2022-09-07T10:30:58.848Z,40.37
2022-09-07T10:37:08.600Z,39.69
2022-09-07T10:40:00.566Z,40.37
2022-09-07T10:42:35.157Z,40.17
2022-09-07T10:45:28.246Z,40.10
2022-09-07T10:48:11.038Z,39.65
2022-09-07T10:50:53.261Z,39.46
2022-09-07T10:53:43.099Z,39.33
2022-09-07T10:56:31.937Z,39.82
2022-09-07T11:03:24.962Z,39.36
2022-09-07T11:05:56.281Z,39.20
2022-09-07T11:09:15.734Z,39.07
2022-09-07T11:14:21.538Z,38.47
2022-09-07T11:16:57.855Z,38.07
2022-09-07T11:19:38.846Z,38.19
2022-09-07T11:22:22.345Z,38.71
2022-09-07T11:28:19.116Z,38.98
2022-09-07T11:30:59.205Z,38.71
2022-09-07T11:33:40.469Z,38.55
2022-09-07T11:36:15.309Z,39.40
2022-09-07T11:38:53.898Z,39.35
2022-09-07T11:41:29.315Z,39.46
2022-09-07T11:44:06.178Z,39.89
2022-09-07T11:47:21.386Z,39.90
2022-09-07T11:49:59.027Z,40.08
2022-09-07T11:52:42.721Z,40.36
2022-09-07T11:55:21.248Z,40.52
2022-09-07T11:58:26.578Z,40.72
2022-09-07T12:01:08.734Z,40.63
2022-09-07T12:04:31.727Z,41.15
2022-09-07T12:07:29.563Z,40.80
2022-09-07T12:10:27.765Z,40.68
2022-09-07T12:13:46.479Z,40.01
2022-09-07T12:16:49.201Z,40.54
2022-09-07T12:19:23.355Z,40.37
2022-09-07T12:21:53.299Z,39.59
2022-09-07T12:24:48.425Z,39.52
2022-09-07T12:27:21.211Z,39.94
2022-09-07T12:29:52.140Z,39.86
2022-09-07T12:32:55.310Z,39.71
2022-09-07T12:35:25.817Z,39.31
2022-09-07T12:37:54.837Z,38.83
2022-09-07T12:40:28.149Z,38.78
2022-09-07T12:43:13.013Z,37.68
2022-09-07T12:45:40.227Z,37.43
2022-09-07T12:49:04.254Z,37.38
2022-09-07T12:54:37.462Z,37.60
2022-09-07T12:57:39.220Z,37.33
2022-09-07T13:00:22.725Z,38.27
2022-09-07T13:09:33.425Z,39.30
2022-09-07T13:15:48.601Z,39.75
2022-09-07T13:18:28.165Z,39.83
2022-09-07T13:21:10.648Z,39.87
2022-09-07T13:23:39.489Z,39.90
2022-09-07T13:26:49.347Z,39.86
2022-09-07T13:29:46.199Z,40.61
2022-09-07T13:35:23.813Z,40.61
2022-09-07T13:37:57.633Z,40.95
2022-09-07T13:40:40.152Z,41.30
2022-09-07T13:43:18.937Z,41.81
2022-09-07T13:45:53.914Z,41.17
2022-09-07T13:48:31.139Z,40.92
2022-09-07T13:51:16.505Z,41.51
2022-09-07T13:53:55.576Z,41.68
2022-09-07T13:56:38.364Z,41.33
2022-09-07T13:59:23.278Z,41.65
2022-09-07T14:01:51.244Z,41.90
2022-09-07T14:04:36.909Z,42.04
2022-09-07T14:07:12.540Z,41.84
2022-09-07T14:09:39.603Z,42.07
2022-09-07T14:12:16.067Z,42.54
2022-09-07T14:14:43.161Z,42.46
2022-09-07T14:17:14.894Z,43.07
2022-09-07T14:19:45.805Z,43.17
2022-09-07T14:22:17.543Z,43.25
2022-09-07T14:24:53.242Z,43.66
2022-09-07T14:27:40.714Z,43.74
2022-09-07T14:30:25.505Z,43.96
2022-09-07T14:33:00.648Z,44.07
2022-09-07T14:35:33.301Z,44.73
2022-09-07T14:38:14.581Z,44.26
2022-09-07T14:40:42.389Z,44.98
2022-09-07T14:43:33.305Z,44.83
2022-09-07T14:46:24.760Z,44.87
2022-09-07T14:48:58.713Z,45.54
2022-09-07T14:51:36.197Z,45.44
2022-09-07T14:54:07.692Z,45.10
2022-09-07T14:56:38.955Z,44.97
2022-09-07T14:59:32.569Z,44.97
2022-09-07T15:02:18.055Z,45.46
2022-09-07T15:04:47.001Z,45.60
2022-09-07T15:07:40.592Z,45.79
2022-09-07T15:10:23.527Z,45.95
2022-09-07T15:12:57.948Z,45.80
2022-09-07T15:15:40.457Z,46.24
2022-09-07T15:18:51.570Z,46.15
2022-09-07T15:21:19.044Z,46.48
2022-09-07T15:23:54.569Z,46.80
2022-09-07T15:29:14.813Z,46.91
2022-09-07T15:31:49.755Z,46.86
2022-09-07T15:34:24.623Z,47.00
2022-09-07T15:36:53.351Z,47.76
2022-09-07T15:39:27.597Z,47.60
2022-09-07T15:41:55.510Z,47.75
2022-09-07T15:44:26.164Z,47.81
2022-09-07T15:49:46.061Z,48.09
2022-09-07T15:52:17.673Z,48.54
2022-09-07T15:54:44.821Z,49.07
2022-09-07T15:59:59.221Z,49.39
2022-09-07T16:05:13.447Z,48.92
2022-09-07T16:10:31.089Z,49.31
2022-09-07T16:13:01.212Z,49.13
2022-09-07T16:15:31.315Z,49.48
2022-09-07T16:17:58.788Z,49.93
2022-09-07T16:20:31.630Z,49.90
2022-09-07T16:23:15.830Z,49.82
2022-09-07T16:25:57.060Z,50.40
2022-09-07T16:28:26.185Z,50.60
2022-09-07T16:30:53.919Z,50.96
2022-09-07T16:33:21.233Z,50.82
2022-09-07T16:36:03.625Z,50.86
2022-09-07T16:38:47.069Z,51.09
2022-09-07T16:41:30.841Z,51.29
2022-09-07T16:43:58.502Z,51.45
2022-09-07T16:46:30.277Z,51.57
2022-09-07T16:48:57.837Z,51.70
2022-09-07T16:51:25.132Z,52.20
2022-09-07T16:53:56.158Z,51.86
2022-09-07T16:56:25.024Z,52.11
2022-09-07T16:59:01.186Z,52.37
2022-09-07T17:01:32.845Z,52.36
2022-09-07T17:04:01.187Z,52.46
2022-09-07T17:06:30.846Z,52.73
2022-09-07T17:09:01.316Z,52.83
2022-09-07T17:11:34.947Z,53.03
2022-09-07T17:14:04.951Z,53.19
2022-09-07T17:16:36.209Z,53.54
2022-09-07T17:21:54.341Z,53.51
2022-09-07T17:24:21.253Z,53.73
2022-09-07T17:26:48.369Z,53.64
2022-09-07T17:29:15.392Z,53.96
2022-09-07T17:34:30.504Z,54.15
2022-09-07T17:36:58.564Z,54.01
2022-09-07T17:39:25.755Z,54.07
2022-09-07T17:41:53.928Z,54.21
2022-09-07T17:44:22.738Z,54.21
2022-09-07T17:46:50.120Z,54.53
2022-09-07T17:49:17.338Z,54.65
2022-09-07T17:51:45.711Z,54.80
2022-09-07T17:54:16.176Z,54.75
2022-09-07T17:56:44.493Z,54.83
2022-09-07T18:01:59.853Z,55.06
2022-09-07T18:04:28.217Z,55.13
2022-09-07T18:06:56.199Z,55.19
2022-09-07T18:09:23.595Z,55.19
2022-09-07T18:11:51.190Z,55.37
2022-09-07T18:14:19.303Z,55.39
2022-09-07T18:16:49.404Z,55.63
2022-09-07T18:19:18.613Z,55.74
2022-09-07T18:21:47.388Z,55.67
2022-09-07T18:24:22.064Z,55.98
2022-09-07T18:26:52.751Z,56.01
2022-09-07T18:29:29.258Z,55.92
2022-09-07T18:31:59.984Z,56.07
2022-09-07T18:34:28.889Z,56.47
2022-09-07T18:36:57.638Z,56.41
2022-09-07T18:39:26.250Z,56.93
2022-09-07T18:41:54.458Z,56.91
2022-09-07T18:47:16.091Z,57.14
2022-09-07T18:49:48.806Z,57.02
2022-09-07T18:55:03.416Z,57.37
2022-09-07T18:57:30.729Z,57.71
2022-09-07T18:59:57.833Z,57.75
2022-09-07T19:02:25.229Z,57.92
2022-09-07T19:07:39.712Z,58.32
2022-09-07T19:10:08.058Z,58.17
2022-09-07T19:12:35.130Z,58.34
2022-09-07T19:15:03.097Z,58.48
2022-09-07T19:17:31.277Z,58.75
2022-09-07T19:19:58.481Z,58.92
2022-09-07T19:22:27.177Z,58.92
2022-09-07T19:24:54.532Z,58.77
2022-09-07T19:27:21.721Z,58.76
2022-09-07T19:29:49.044Z,59.16
2022-09-07T19:32:17.657Z,59.33
2022-09-07T19:34:45.524Z,59.34
2022-09-07T19:37:13.142Z,59.61
2022-09-07T19:39:40.519Z,59.88
2022-09-07T19:42:08.110Z,59.66
2022-09-07T19:44:35.631Z,59.71
2022-09-07T19:47:02.851Z,59.80
2022-09-07T19:49:30.312Z,59.96
2022-09-07T19:51:57.589Z,60.02
2022-09-07T19:54:24.976Z,60.21
2022-09-07T19:56:52.012Z,60.36
2022-09-07T19:59:19.376Z,60.42
2022-09-07T20:01:49.078Z,60.70
2022-09-07T20:04:22.976Z,60.81
2022-09-07T20:06:51.114Z,60.96
2022-09-07T20:09:19.761Z,61.10
2022-09-07T20:11:47.787Z,61.28
2022-09-07T20:14:16.741Z,61.62
2022-09-07T20:16:44.387Z,62.05
2022-09-07T20:19:13.931Z,62.15
2022-09-07T20:21:41.076Z,62.22
2022-09-07T20:24:11.709Z,62.43
2022-09-07T20:26:39.108Z,62.31
2022-09-07T20:29:26.115Z,62.35
2022-09-07T20:31:54.170Z,62.22
2022-09-07T20:34:21.348Z,62.45
2022-09-07T20:36:50.116Z,62.31
2022-09-07T20:39:17.249Z,62.49
2022-09-07T20:41:44.652Z,62.56
2022-09-07T20:44:12.386Z,62.47
2022-09-07T20:46:39.473Z,62.38
2022-09-07T20:49:07.112Z,62.26
2022-09-07T20:51:34.927Z,62.52
2022-09-07T20:54:02.186Z,62.61
2022-09-07T20:56:29.954Z,62.74
2022-09-07T20:58:59.782Z,62.81
2022-09-07T21:01:28.401Z,62.92
2022-09-07T21:03:58.868Z,63.01
2022-09-07T21:06:27.758Z,63.11
2022-09-07T21:08:59.032Z,63.24
2022-09-07T21:11:33.687Z,63.21
2022-09-07T21:14:08.085Z,63.20
2022-09-07T21:16:35.966Z,63.12
2022-09-07T21:19:06.781Z,63.07
2022-09-07T21:21:39.149Z,62.93
2022-09-07T21:24:21.442Z,62.81
2022-09-07T21:26:50.331Z,63.07
2022-09-07T21:29:22.590Z,62.82
2022-09-07T21:31:52.397Z,62.63
2022-09-07T21:34:19.752Z,62.65
2022-09-07T21:36:47.158Z,62.78
2022-09-07T21:39:15.501Z,63.19
2022-09-07T21:41:44.743Z,63.42
2022-09-07T21:44:14.337Z,63.15
2022-09-07T21:46:42.836Z,62.80
2022-09-07T21:49:10.865Z,62.75
2022-09-07T21:51:38.299Z,62.54
2022-09-07T21:54:06.017Z,62.48
2022-09-07T21:56:33.300Z,62.48
2022-09-07T21:59:02.250Z,62.55
2022-09-07T22:01:31.012Z,62.59
2022-09-07T22:04:02.080Z,62.59
2022-09-07T22:06:31.953Z,62.52
2022-09-07T22:09:00.433Z,62.55
2022-09-07T22:11:28.959Z,62.51
2022-09-07T22:14:02.874Z,62.83
2022-09-07T22:16:33.023Z,63.25
2022-09-07T22:19:00.774Z,63.64
2022-09-07T22:21:29.484Z,63.77
2022-09-07T22:23:59.941Z,63.68
2022-09-07T22:26:30.900Z,63.64
2022-09-07T22:28:58.751Z,63.86
2022-09-07T22:31:29.974Z,63.35
2022-09-07T22:33:59.354Z,63.21
2022-09-07T22:36:33.624Z,63.21
2022-09-07T22:39:05.032Z,63.87
2022-09-07T22:41:34.789Z,63.97
2022-09-07T22:44:02.459Z,64.12
2022-09-07T22:46:33.917Z,64.21
2022-09-07T22:49:01.053Z,63.91
2022-09-07T22:51:28.174Z,63.99
2022-09-07T22:53:56.583Z,64.15
2022-09-07T22:56:27.620Z,64.25
2022-09-07T22:59:01.081Z,64.86
2022-09-07T23:01:31.216Z,65.11
2022-09-07T23:03:59.600Z,64.97
2022-09-07T23:06:39.168Z,65.14
2022-09-07T23:09:15.323Z,65.57
2022-09-07T23:11:43.573Z,65.50
2022-09-07T23:14:21.350Z,65.59
2022-09-07T23:16:48.957Z,65.65
2022-09-07T23:19:19.309Z,65.65
2022-09-07T23:21:47.093Z,65.81
2022-09-07T23:24:17.466Z,65.86
2022-09-07T23:26:46.273Z,66.08
2022-09-07T23:29:15.317Z,65.97
2022-09-07T23:31:45.112Z,66.23
2022-09-07T23:34:12.263Z,66.45
2022-09-07T23:36:39.414Z,66.45
2022-09-07T23:39:06.812Z,66.47
2022-09-07T23:41:33.811Z,66.50
2022-09-07T23:44:01.167Z,66.57
2022-09-07T23:46:28.403Z,66.62
2022-09-07T23:48:55.772Z,66.64
2022-09-07T23:51:24.458Z,66.66
2022-09-07T23:53:52.622Z,66.84
2022-09-07T23:56:21.469Z,66.83
2022-09-07T23:58:48.671Z,67.04
